Terminal Aerodrome Forecast
Issued by NWS Shreveport, LA

Home | Current Version | Previous Version | Text Only | Print | Product List | Glossary On
Versions: 1 2 3 4 5 6 7 8 9 10 11 12 13 14 15 16
423
FTUS44 KSHV 241515 AAA
TAFTXK
TAF AMD
KTXK 241515Z 2415/2512 19009KT P6SM BKN015
     FM241700 17010KT P6SM VCTS SCT050CB BKN250
     FM250000 17007KT P6SM SCT050 BKN100=

USA.gov is the U.S. government's official web portal to all federal, state and local government web resources and services.